sensor_id;sensor_type;location;lat;lon;timestamp;P1;durP1;ratioP1;P2;durP2;ratioP2
50781;SDS011;36749;37.428;-121.972;2022-10-19T00:03:32;20.13;;;8.52;;
50781;SDS011;36749;37.428;-121.972;2022-10-19T00:05:59;20.17;;;8.90;;
50781;SDS011;36749;37.428;-121.972;2022-10-19T00:08:34;20.50;;;8.73;;
50781;SDS011;36749;37.428;-121.972;2022-10-19T00:11:00;39.20;;;11.38;;
50781;SDS011;36749;37.428;-121.972;2022-10-19T00:13:26;40.72;;;11.38;;
50781;SDS011;36749;37.428;-121.972;2022-10-19T00:15:52;21.52;;;9.02;;
50781;SDS011;36749;37.428;-121.972;2022-10-19T00:18:19;20.67;;;8.95;;
50781;SDS011;36749;37.428;-121.972;2022-10-19T00:20:45;24.52;;;9.02;;
50781;SDS011;36749;37.428;-121.972;2022-10-19T00:23:11;19.92;;;8.73;;
50781;SDS011;36749;37.428;-121.972;2022-10-19T00:25:37;24.00;;;9.10;;
50781;SDS011;36749;37.428;-121.972;2022-10-19T00:28:03;25.52;;;10.02;;
50781;SDS011;36749;37.428;-121.972;2022-10-19T00:30:30;16.58;;;8.98;;
50781;SDS011;36749;37.428;-121.972;2022-10-19T00:32:59;26.80;;;9.43;;
50781;SDS011;36749;37.428;-121.972;2022-10-19T00:35:25;20.05;;;10.23;;
50781;SDS011;36749;37.428;-121.972;2022-10-19T00:37:51;16.98;;;7.82;;
50781;SDS011;36749;37.428;-121.972;2022-10-19T00:40:17;22.10;;;9.70;;
50781;SDS011;36749;37.428;-121.972;2022-10-19T00:42:43;19.48;;;8.30;;
50781;SDS011;36749;37.428;-121.972;2022-10-19T00:45:14;21.17;;;10.45;;
50781;SDS011;36749;37.428;-121.972;2022-10-19T00:47:43;23.23;;;10.10;;
50781;SDS011;36749;37.428;-121.972;2022-10-19T00:50:10;18.23;;;9.20;;
50781;SDS011;36749;37.428;-121.972;2022-10-19T00:52:39;23.70;;;10.77;;
50781;SDS011;36749;37.428;-121.972;2022-10-19T00:55:09;19.17;;;10.40;;
50781;SDS011;36749;37.428;-121.972;2022-10-19T00:57:36;23.25;;;10.30;;
50781;SDS011;36749;37.428;-121.972;2022-10-19T01:00:03;16.95;;;9.60;;
50781;SDS011;36749;37.428;-121.972;2022-10-19T01:02:31;22.42;;;9.90;;
50781;SDS011;36749;37.428;-121.972;2022-10-19T01:05:01;20.05;;;9.82;;
50781;SDS011;36749;37.428;-121.972;2022-10-19T01:07:28;18.20;;;9.90;;
50781;SDS011;36749;37.428;-121.972;2022-10-19T01:09:54;24.92;;;10.00;;
50781;SDS011;36749;37.428;-121.972;2022-10-19T01:17:42;21.98;;;10.20;;
50781;SDS011;36749;37.428;-121.972;2022-10-19T01:20:38;23.17;;;9.65;;
50781;SDS011;36749;37.428;-121.972;2022-10-19T01:25:48;18.85;;;10.20;;
50781;SDS011;36749;37.428;-121.972;2022-10-19T01:39:34;18.13;;;8.68;;
50781;SDS011;36749;37.428;-121.972;2022-10-19T01:44:36;18.55;;;10.48;;
50781;SDS011;36749;37.428;-121.972;2022-10-19T01:47:06;18.93;;;8.83;;
50781;SDS011;36749;37.428;-121.972;2022-10-19T01:49:54;18.83;;;8.65;;
50781;SDS011;36749;37.428;-121.972;2022-10-19T01:52:33;18.85;;;9.38;;
50781;SDS011;36749;37.428;-121.972;2022-10-19T01:55:00;18.45;;;9.48;;
50781;SDS011;36749;37.428;-121.972;2022-10-19T01:57:52;16.10;;;8.50;;
50781;SDS011;36749;37.428;-121.972;2022-10-19T02:00:19;19.55;;;9.63;;
50781;SDS011;36749;37.428;-121.972;2022-10-19T02:02:47;19.58;;;9.02;;
50781;SDS011;36749;37.428;-121.972;2022-10-19T02:05:16;20.35;;;9.52;;
50781;SDS011;36749;37.428;-121.972;2022-10-19T02:07:45;19.75;;;9.20;;
50781;SDS011;36749;37.428;-121.972;2022-10-19T02:10:13;18.98;;;8.82;;
50781;SDS011;36749;37.428;-121.972;2022-10-19T02:12:40;17.52;;;8.95;;
50781;SDS011;36749;37.428;-121.972;2022-10-19T02:15:11;19.98;;;10.15;;
50781;SDS011;36749;37.428;-121.972;2022-10-19T02:17:43;17.90;;;8.95;;
50781;SDS011;36749;37.428;-121.972;2022-10-19T02:20:11;21.90;;;9.57;;
50781;SDS011;36749;37.428;-121.972;2022-10-19T02:22:37;19.90;;;9.93;;
50781;SDS011;36749;37.428;-121.972;2022-10-19T02:25:04;18.90;;;10.27;;
50781;SDS011;36749;37.428;-121.972;2022-10-19T02:27:32;18.38;;;10.43;;
50781;SDS011;36749;37.428;-121.972;2022-10-19T02:29:58;19.65;;;10.45;;
50781;SDS011;36749;37.428;-121.972;2022-10-19T02:32:25;22.38;;;10.52;;
50781;SDS011;36749;37.428;-121.972;2022-10-19T02:34:51;17.58;;;9.80;;
50781;SDS011;36749;37.428;-121.972;2022-10-19T02:37:18;21.77;;;10.07;;
50781;SDS011;36749;37.428;-121.972;2022-10-19T02:39:44;18.70;;;9.68;;
50781;SDS011;36749;37.428;-121.972;2022-10-19T02:42:18;19.52;;;10.88;;
50781;SDS011;36749;37.428;-121.972;2022-10-19T02:45:42;27.55;;;11.30;;
50781;SDS011;36749;37.428;-121.972;2022-10-19T02:48:06;24.58;;;12.90;;
50781;SDS011;36749;37.428;-121.972;2022-10-19T02:50:42;24.20;;;12.98;;
50781;SDS011;36749;37.428;-121.972;2022-10-19T02:53:09;24.35;;;12.70;;
50781;SDS011;36749;37.428;-121.972;2022-10-19T02:55:35;21.25;;;11.77;;
50781;SDS011;36749;37.428;-121.972;2022-10-19T02:58:01;28.65;;;15.73;;
50781;SDS011;36749;37.428;-121.972;2022-10-19T03:00:27;31.67;;;17.50;;
50781;SDS011;36749;37.428;-121.972;2022-10-19T03:02:54;23.25;;;15.50;;
50781;SDS011;36749;37.428;-121.972;2022-10-19T03:05:20;29.20;;;17.48;;
50781;SDS011;36749;37.428;-121.972;2022-10-19T03:07:46;24.55;;;14.32;;
50781;SDS011;36749;37.428;-121.972;2022-10-19T03:10:32;25.30;;;13.93;;
50781;SDS011;36749;37.428;-121.972;2022-10-19T03:12:59;25.20;;;14.63;;
50781;SDS011;36749;37.428;-121.972;2022-10-19T03:15:25;22.40;;;13.40;;
50781;SDS011;36749;37.428;-121.972;2022-10-19T03:17:54;24.48;;;14.18;;
50781;SDS011;36749;37.428;-121.972;2022-10-19T03:20:20;26.08;;;14.38;;
50781;SDS011;36749;37.428;-121.972;2022-10-19T03:22:47;24.20;;;13.40;;
50781;SDS011;36749;37.428;-121.972;2022-10-19T03:25:13;21.63;;;12.90;;
50781;SDS011;36749;37.428;-121.972;2022-10-19T03:27:39;23.80;;;11.52;;
50781;SDS011;36749;37.428;-121.972;2022-10-19T03:30:05;24.67;;;12.40;;
50781;SDS011;36749;37.428;-121.972;2022-10-19T03:32:32;20.35;;;12.73;;
50781;SDS011;36749;37.428;-121.972;2022-10-19T03:34:58;22.17;;;11.32;;
50781;SDS011;36749;37.428;-121.972;2022-10-19T03:37:24;21.35;;;11.02;;
50781;SDS011;36749;37.428;-121.972;2022-10-19T03:39:50;19.73;;;12.20;;
50781;SDS011;36749;37.428;-121.972;2022-10-19T03:42:16;18.65;;;10.88;;
50781;SDS011;36749;37.428;-121.972;2022-10-19T03:44:42;24.67;;;11.85;;
50781;SDS011;36749;37.428;-121.972;2022-10-19T03:47:08;21.77;;;11.85;;
50781;SDS011;36749;37.428;-121.972;2022-10-19T03:49:34;19.27;;;11.15;;
50781;SDS011;36749;37.428;-121.972;2022-10-19T03:52:01;19.05;;;10.50;;
50781;SDS011;36749;37.428;-121.972;2022-10-19T03:54:27;21.50;;;12.18;;
50781;SDS011;36749;37.428;-121.972;2022-10-19T03:56:53;21.80;;;11.95;;
50781;SDS011;36749;37.428;-121.972;2022-10-19T03:59:19;24.27;;;12.85;;
50781;SDS011;36749;37.428;-121.972;2022-10-19T04:01:46;21.38;;;12.60;;
50781;SDS011;36749;37.428;-121.972;2022-10-19T04:04:13;19.02;;;11.02;;
50781;SDS011;36749;37.428;-121.972;2022-10-19T04:06:41;29.38;;;13.75;;
50781;SDS011;36749;37.428;-121.972;2022-10-19T04:09:10;22.55;;;11.45;;
50781;SDS011;36749;37.428;-121.972;2022-10-19T04:11:38;24.23;;;13.13;;
50781;SDS011;36749;37.428;-121.972;2022-10-19T04:14:04;25.27;;;12.98;;
50781;SDS011;36749;37.428;-121.972;2022-10-19T04:16:31;20.98;;;11.93;;
50781;SDS011;36749;37.428;-121.972;2022-10-19T04:18:57;21.73;;;12.20;;
50781;SDS011;36749;37.428;-121.972;2022-10-19T04:21:28;20.27;;;11.07;;
50781;SDS011;36749;37.428;-121.972;2022-10-19T04:23:59;21.75;;;12.02;;
50781;SDS011;36749;37.428;-121.972;2022-10-19T04:26:31;22.60;;;11.60;;
50781;SDS011;36749;37.428;-121.972;2022-10-19T04:28:58;21.83;;;11.38;;
50781;SDS011;36749;37.428;-121.972;2022-10-19T04:31:28;21.00;;;11.13;;
50781;SDS011;36749;37.428;-121.972;2022-10-19T04:33:54;25.40;;;11.38;;
50781;SDS011;36749;37.428;-121.972;2022-10-19T04:36:21;22.33;;;11.38;;
50781;SDS011;36749;37.428;-121.972;2022-10-19T04:38:47;30.38;;;11.52;;
50781;SDS011;36749;37.428;-121.972;2022-10-19T04:41:15;20.35;;;11.55;;
50781;SDS011;36749;37.428;-121.972;2022-10-19T04:43:43;25.45;;;12.23;;
50781;SDS011;36749;37.428;-121.972;2022-10-19T04:46:10;20.15;;;11.45;;
50781;SDS011;36749;37.428;-121.972;2022-10-19T04:48:38;20.50;;;10.43;;
50781;SDS011;36749;37.428;-121.972;2022-10-19T04:51:05;20.77;;;10.25;;
50781;SDS011;36749;37.428;-121.972;2022-10-19T04:53:32;20.52;;;10.23;;
50781;SDS011;36749;37.428;-121.972;2022-10-19T04:55:59;19.02;;;10.43;;
50781;SDS011;36749;37.428;-121.972;2022-10-19T04:58:28;22.25;;;9.43;;
50781;SDS011;36749;37.428;-121.972;2022-10-19T05:00:54;21.38;;;10.27;;
50781;SDS011;36749;37.428;-121.972;2022-10-19T05:03:20;19.67;;;9.85;;
50781;SDS011;36749;37.428;-121.972;2022-10-19T05:05:46;21.85;;;9.80;;
50781;SDS011;36749;37.428;-121.972;2022-10-19T05:08:13;19.27;;;10.35;;
50781;SDS011;36749;37.428;-121.972;2022-10-19T05:10:39;19.20;;;10.80;;
50781;SDS011;36749;37.428;-121.972;2022-10-19T05:13:05;20.38;;;10.32;;
50781;SDS011;36749;37.428;-121.972;2022-10-19T05:15:32;19.42;;;11.55;;
50781;SDS011;36749;37.428;-121.972;2022-10-19T05:17:58;21.48;;;10.55;;
50781;SDS011;36749;37.428;-121.972;2022-10-19T05:20:24;19.42;;;10.18;;
50781;SDS011;36749;37.428;-121.972;2022-10-19T05:22:51;19.42;;;10.95;;
50781;SDS011;36749;37.428;-121.972;2022-10-19T05:25:17;19.50;;;10.35;;
50781;SDS011;36749;37.428;-121.972;2022-10-19T05:27:43;19.10;;;9.57;;
50781;SDS011;36749;37.428;-121.972;2022-10-19T05:30:10;18.27;;;10.30;;
50781;SDS011;36749;37.428;-121.972;2022-10-19T05:32:38;17.77;;;9.85;;
50781;SDS011;36749;37.428;-121.972;2022-10-19T05:35:04;20.60;;;10.23;;
50781;SDS011;36749;37.428;-121.972;2022-10-19T05:37:30;22.58;;;9.75;;
50781;SDS011;36749;37.428;-121.972;2022-10-19T05:39:57;21.02;;;10.75;;
50781;SDS011;36749;37.428;-121.972;2022-10-19T05:42:23;18.25;;;9.60;;
50781;SDS011;36749;37.428;-121.972;2022-10-19T05:44:49;19.63;;;10.70;;
50781;SDS011;36749;37.428;-121.972;2022-10-19T05:47:15;20.25;;;9.68;;
50781;SDS011;36749;37.428;-121.972;2022-10-19T05:49:41;21.80;;;11.05;;
50781;SDS011;36749;37.428;-121.972;2022-10-19T05:52:07;23.23;;;12.10;;
50781;SDS011;36749;37.428;-121.972;2022-10-19T05:54:33;21.50;;;10.40;;
50781;SDS011;36749;37.428;-121.972;2022-10-19T05:57:00;24.77;;;11.45;;
50781;SDS011;36749;37.428;-121.972;2022-10-19T05:59:27;20.95;;;10.68;;
50781;SDS011;36749;37.428;-121.972;2022-10-19T06:01:53;23.15;;;10.63;;
50781;SDS011;36749;37.428;-121.972;2022-10-19T06:04:19;21.63;;;11.25;;
50781;SDS011;36749;37.428;-121.972;2022-10-19T06:06:45;21.15;;;10.55;;
50781;SDS011;36749;37.428;-121.972;2022-10-19T06:09:11;19.90;;;11.05;;
50781;SDS011;36749;37.428;-121.972;2022-10-19T06:11:38;22.80;;;11.05;;
50781;SDS011;36749;37.428;-121.972;2022-10-19T06:14:07;22.60;;;12.25;;
50781;SDS011;36749;37.428;-121.972;2022-10-19T06:16:35;23.55;;;10.98;;
50781;SDS011;36749;37.428;-121.972;2022-10-19T06:19:02;20.60;;;11.85;;
50781;SDS011;36749;37.428;-121.972;2022-10-19T06:21:30;20.65;;;11.80;;
50781;SDS011;36749;37.428;-121.972;2022-10-19T06:23:58;22.40;;;11.65;;
50781;SDS011;36749;37.428;-121.972;2022-10-19T06:26:26;21.83;;;11.35;;
50781;SDS011;36749;37.428;-121.972;2022-10-19T06:28:56;22.45;;;10.77;;
50781;SDS011;36749;37.428;-121.972;2022-10-19T06:31:25;21.50;;;11.10;;
50781;SDS011;36749;37.428;-121.972;2022-10-19T06:33:55;22.77;;;12.20;;
50781;SDS011;36749;37.428;-121.972;2022-10-19T06:36:22;20.13;;;11.25;;
50781;SDS011;36749;37.428;-121.972;2022-10-19T06:38:49;20.02;;;11.48;;
50781;SDS011;36749;37.428;-121.972;2022-10-19T06:41:17;25.65;;;12.23;;
50781;SDS011;36749;37.428;-121.972;2022-10-19T06:43:47;22.15;;;12.38;;
50781;SDS011;36749;37.428;-121.972;2022-10-19T06:46:17;24.30;;;12.05;;
50781;SDS011;36749;37.428;-121.972;2022-10-19T06:48:51;23.08;;;11.82;;
50781;SDS011;36749;37.428;-121.972;2022-10-19T06:51:18;21.45;;;11.80;;
50781;SDS011;36749;37.428;-121.972;2022-10-19T06:53:45;24.33;;;12.02;;
50781;SDS011;36749;37.428;-121.972;2022-10-19T06:56:11;20.25;;;12.10;;
50781;SDS011;36749;37.428;-121.972;2022-10-19T06:58:37;24.35;;;12.38;;
50781;SDS011;36749;37.428;-121.972;2022-10-19T07:01:04;22.80;;;12.63;;
50781;SDS011;36749;37.428;-121.972;2022-10-19T07:03:32;22.80;;;13.02;;
50781;SDS011;36749;37.428;-121.972;2022-10-19T07:05:59;23.35;;;12.65;;
50781;SDS011;36749;37.428;-121.972;2022-10-19T07:08:27;24.80;;;12.23;;
50781;SDS011;36749;37.428;-121.972;2022-10-19T07:10:55;20.92;;;12.32;;
50781;SDS011;36749;37.428;-121.972;2022-10-19T07:13:23;22.48;;;12.15;;
50781;SDS011;36749;37.428;-121.972;2022-10-19T07:16:00;20.52;;;12.23;;
50781;SDS011;36749;37.428;-121.972;2022-10-19T07:18:29;25.23;;;12.70;;
50781;SDS011;36749;37.428;-121.972;2022-10-19T07:20:56;20.70;;;11.55;;
50781;SDS011;36749;37.428;-121.972;2022-10-19T07:23:24;22.42;;;12.43;;
50781;SDS011;36749;37.428;-121.972;2022-10-19T07:25:52;22.50;;;12.68;;
50781;SDS011;36749;37.428;-121.972;2022-10-19T07:28:20;23.27;;;12.57;;
50781;SDS011;36749;37.428;-121.972;2022-10-19T07:30:46;23.23;;;11.82;;
50781;SDS011;36749;37.428;-121.972;2022-10-19T07:33:12;26.90;;;13.05;;
50781;SDS011;36749;37.428;-121.972;2022-10-19T07:35:39;22.50;;;11.88;;
50781;SDS011;36749;37.428;-121.972;2022-10-19T07:38:05;28.75;;;12.75;;
50781;SDS011;36749;37.428;-121.972;2022-10-19T07:40:34;25.90;;;13.73;;
50781;SDS011;36749;37.428;-121.972;2022-10-19T07:43:00;23.33;;;12.50;;
50781;SDS011;36749;37.428;-121.972;2022-10-19T07:45:27;22.95;;;11.95;;
50781;SDS011;36749;37.428;-121.972;2022-10-19T07:47:54;26.15;;;12.23;;
50781;SDS011;36749;37.428;-121.972;2022-10-19T07:50:20;24.10;;;12.38;;
50781;SDS011;36749;37.428;-121.972;2022-10-19T07:52:51;28.33;;;13.55;;
50781;SDS011;36749;37.428;-121.972;2022-10-19T07:55:17;26.35;;;12.90;;
50781;SDS011;36749;37.428;-121.972;2022-10-19T07:57:47;23.73;;;13.27;;
50781;SDS011;36749;37.428;-121.972;2022-10-19T08:00:17;23.90;;;13.48;;
50781;SDS011;36749;37.428;-121.972;2022-10-19T08:02:43;24.23;;;12.88;;
50781;SDS011;36749;37.428;-121.972;2022-10-19T08:05:09;25.10;;;13.60;;
50781;SDS011;36749;37.428;-121.972;2022-10-19T08:07:35;20.80;;;11.85;;
50781;SDS011;36749;37.428;-121.972;2022-10-19T08:10:02;21.80;;;12.95;;
50781;SDS011;36749;37.428;-121.972;2022-10-19T08:12:29;20.27;;;12.15;;
50781;SDS011;36749;37.428;-121.972;2022-10-19T08:14:55;21.52;;;12.13;;
50781;SDS011;36749;37.428;-121.972;2022-10-19T08:17:21;24.08;;;12.13;;
50781;SDS011;36749;37.428;-121.972;2022-10-19T08:19:47;22.58;;;12.80;;
50781;SDS011;36749;37.428;-121.972;2022-10-19T08:22:13;23.35;;;12.63;;
50781;SDS011;36749;37.428;-121.972;2022-10-19T08:24:40;23.75;;;12.68;;
50781;SDS011;36749;37.428;-121.972;2022-10-19T08:27:06;21.15;;;12.55;;
50781;SDS011;36749;37.428;-121.972;2022-10-19T08:29:32;23.23;;;12.20;;
50781;SDS011;36749;37.428;-121.972;2022-10-19T08:31:58;23.45;;;12.52;;
50781;SDS011;36749;37.428;-121.972;2022-10-19T08:34:24;22.73;;;12.98;;
50781;SDS011;36749;37.428;-121.972;2022-10-19T08:36:50;21.77;;;12.40;;
50781;SDS011;36749;37.428;-121.972;2022-10-19T08:39:16;23.83;;;12.45;;
50781;SDS011;36749;37.428;-121.972;2022-10-19T08:41:52;21.65;;;12.32;;
50781;SDS011;36749;37.428;-121.972;2022-10-19T08:44:36;23.63;;;12.43;;
50781;SDS011;36749;37.428;-121.972;2022-10-19T08:47:16;20.80;;;11.68;;
50781;SDS011;36749;37.428;-121.972;2022-10-19T08:49:58;19.35;;;11.27;;
50781;SDS011;36749;37.428;-121.972;2022-10-19T08:52:26;21.83;;;11.98;;
50781;SDS011;36749;37.428;-121.972;2022-10-19T09:03:37;25.70;;;12.75;;
50781;SDS011;36749;37.428;-121.972;2022-10-19T09:06:06;23.65;;;12.38;;
50781;SDS011;36749;37.428;-121.972;2022-10-19T09:08:53;23.75;;;13.15;;
50781;SDS011;36749;37.428;-121.972;2022-10-19T09:11:27;22.27;;;11.70;;
50781;SDS011;36749;37.428;-121.972;2022-10-19T09:13:59;23.73;;;13.02;;
50781;SDS011;36749;37.428;-121.972;2022-10-19T09:16:31;26.65;;;13.05;;
50781;SDS011;36749;37.428;-121.972;2022-10-19T09:18:59;21.67;;;11.68;;
50781;SDS011;36749;37.428;-121.972;2022-10-19T09:21:27;24.27;;;12.10;;
50781;SDS011;36749;37.428;-121.972;2022-10-19T09:26:55;30.50;;;13.40;;
50781;SDS011;36749;37.428;-121.972;2022-10-19T09:29:25;22.25;;;12.48;;
50781;SDS011;36749;37.428;-121.972;2022-10-19T09:31:59;21.88;;;12.85;;
50781;SDS011;36749;37.428;-121.972;2022-10-19T09:34:30;21.20;;;12.07;;
50781;SDS011;36749;37.428;-121.972;2022-10-19T09:36:59;22.67;;;12.60;;
50781;SDS011;36749;37.428;-121.972;2022-10-19T09:39:27;22.58;;;12.63;;
50781;SDS011;36749;37.428;-121.972;2022-10-19T09:44:40;23.40;;;12.82;;
50781;SDS011;36749;37.428;-121.972;2022-10-19T09:52:46;20.73;;;12.77;;
50781;SDS011;36749;37.428;-121.972;2022-10-19T10:00:19;22.80;;;11.68;;
50781;SDS011;36749;37.428;-121.972;2022-10-19T10:02:51;22.42;;;11.80;;
50781;SDS011;36749;37.428;-121.972;2022-10-19T10:05:18;18.42;;;11.60;;
50781;SDS011;36749;37.428;-121.972;2022-10-19T10:07:45;22.67;;;12.13;;
50781;SDS011;36749;37.428;-121.972;2022-10-19T10:10:19;22.98;;;12.55;;
50781;SDS011;36749;37.428;-121.972;2022-10-19T10:12:47;21.25;;;11.77;;
50781;SDS011;36749;37.428;-121.972;2022-10-19T10:15:17;21.63;;;12.45;;
50781;SDS011;36749;37.428;-121.972;2022-10-19T10:17:46;21.58;;;11.57;;
50781;SDS011;36749;37.428;-121.972;2022-10-19T10:20:26;21.05;;;11.15;;
50781;SDS011;36749;37.428;-121.972;2022-10-19T10:22:58;25.83;;;12.40;;
50781;SDS011;36749;37.428;-121.972;2022-10-19T10:25:35;23.05;;;12.13;;
50781;SDS011;36749;37.428;-121.972;2022-10-19T10:28:18;19.83;;;11.88;;
50781;SDS011;36749;37.428;-121.972;2022-10-19T10:30:46;20.92;;;12.23;;
50781;SDS011;36749;37.428;-121.972;2022-10-19T10:33:14;20.58;;;11.75;;
50781;SDS011;36749;37.428;-121.972;2022-10-19T10:35:45;20.73;;;12.23;;
50781;SDS011;36749;37.428;-121.972;2022-10-19T10:38:17;20.60;;;11.65;;
50781;SDS011;36749;37.428;-121.972;2022-10-19T10:40:51;21.92;;;11.32;;
50781;SDS011;36749;37.428;-121.972;2022-10-19T10:43:19;23.90;;;12.07;;
50781;SDS011;36749;37.428;-121.972;2022-10-19T10:45:48;23.20;;;13.55;;
50781;SDS011;36749;37.428;-121.972;2022-10-19T10:48:27;23.75;;;13.30;;
50781;SDS011;36749;37.428;-121.972;2022-10-19T10:50:55;23.73;;;12.85;;
50781;SDS011;36749;37.428;-121.972;2022-10-19T10:53:36;22.27;;;12.75;;
50781;SDS011;36749;37.428;-121.972;2022-10-19T10:56:05;26.90;;;14.23;;
50781;SDS011;36749;37.428;-121.972;2022-10-19T10:58:49;20.85;;;12.63;;
50781;SDS011;36749;37.428;-121.972;2022-10-19T11:01:38;22.40;;;13.38;;
50781;SDS011;36749;37.428;-121.972;2022-10-19T11:04:16;24.15;;;13.95;;
50781;SDS011;36749;37.428;-121.972;2022-10-19T11:06:46;33.15;;;18.35;;
50781;SDS011;36749;37.428;-121.972;2022-10-19T11:12:30;33.03;;;19.98;;
50781;SDS011;36749;37.428;-121.972;2022-10-19T11:17:53;36.05;;;21.63;;
50781;SDS011;36749;37.428;-121.972;2022-10-19T11:23:34;36.78;;;21.85;;
50781;SDS011;36749;37.428;-121.972;2022-10-19T11:25:48;44.28;;;26.38;;
50781;SDS011;36749;37.428;-121.972;2022-10-19T11:28:34;53.28;;;31.00;;
50781;SDS011;36749;37.428;-121.972;2022-10-19T11:34:03;46.15;;;26.17;;
50781;SDS011;36749;37.428;-121.972;2022-10-19T11:37:01;27.17;;;16.10;;
50781;SDS011;36749;37.428;-121.972;2022-10-19T11:42:11;32.17;;;19.25;;
50781;SDS011;36749;37.428;-121.972;2022-10-19T11:53:32;24.52;;;14.88;;
50781;SDS011;36749;37.428;-121.972;2022-10-19T11:56:17;29.25;;;15.13;;
50781;SDS011;36749;37.428;-121.972;2022-10-19T12:01:47;22.25;;;12.57;;
50781;SDS011;36749;37.428;-121.972;2022-10-19T12:12:40;22.77;;;12.75;;
50781;SDS011;36749;37.428;-121.972;2022-10-19T12:17:48;22.90;;;13.63;;
50781;SDS011;36749;37.428;-121.972;2022-10-19T12:23:25;30.35;;;14.35;;
50781;SDS011;36749;37.428;-121.972;2022-10-19T12:25:58;28.77;;;13.43;;
50781;SDS011;36749;37.428;-121.972;2022-10-19T12:28:26;21.30;;;12.23;;
50781;SDS011;36749;37.428;-121.972;2022-10-19T12:30:54;22.40;;;13.13;;
50781;SDS011;36749;37.428;-121.972;2022-10-19T12:33:22;24.98;;;12.90;;
50781;SDS011;36749;37.428;-121.972;2022-10-19T12:38:49;24.83;;;13.68;;
50781;SDS011;36749;37.428;-121.972;2022-10-19T12:47:23;24.88;;;12.40;;
50781;SDS011;36749;37.428;-121.972;2022-10-19T12:49:50;26.20;;;12.55;;
50781;SDS011;36749;37.428;-121.972;2022-10-19T12:52:37;26.52;;;13.27;;
50781;SDS011;36749;37.428;-121.972;2022-10-19T12:57:47;25.80;;;13.65;;
50781;SDS011;36749;37.428;-121.972;2022-10-19T13:03:04;23.50;;;12.15;;
50781;SDS011;36749;37.428;-121.972;2022-10-19T13:05:32;24.40;;;12.98;;
50781;SDS011;36749;37.428;-121.972;2022-10-19T13:08:00;32.92;;;14.02;;
50781;SDS011;36749;37.428;-121.972;2022-10-19T13:10:27;20.42;;;11.68;;
50781;SDS011;36749;37.428;-121.972;2022-10-19T13:12:55;23.52;;;13.05;;
50781;SDS011;36749;37.428;-121.972;2022-10-19T13:18:00;24.50;;;12.43;;
50781;SDS011;36749;37.428;-121.972;2022-10-19T13:25:30;23.25;;;12.00;;
50781;SDS011;36749;37.428;-121.972;2022-10-19T13:38:44;24.10;;;12.30;;
50781;SDS011;36749;37.428;-121.972;2022-10-19T14:05:50;24.48;;;12.88;;
50781;SDS011;36749;37.428;-121.972;2022-10-19T14:11:16;27.77;;;12.57;;
50781;SDS011;36749;37.428;-121.972;2022-10-19T14:14:05;22.40;;;11.98;;
50781;SDS011;36749;37.428;-121.972;2022-10-19T14:16:32;24.15;;;14.00;;
50781;SDS011;36749;37.428;-121.972;2022-10-19T14:18:58;27.98;;;14.35;;
50781;SDS011;36749;37.428;-121.972;2022-10-19T14:21:27;27.92;;;12.13;;
50781;SDS011;36749;37.428;-121.972;2022-10-19T14:23:57;27.88;;;14.63;;
50781;SDS011;36749;37.428;-121.972;2022-10-19T14:26:24;25.80;;;13.68;;
50781;SDS011;36749;37.428;-121.972;2022-10-19T14:28:54;24.98;;;13.25;;
50781;SDS011;36749;37.428;-121.972;2022-10-19T14:31:23;28.73;;;15.27;;
50781;SDS011;36749;37.428;-121.972;2022-10-19T14:33:59;27.95;;;15.77;;
50781;SDS011;36749;37.428;-121.972;2022-10-19T14:36:38;25.92;;;15.13;;
50781;SDS011;36749;37.428;-121.972;2022-10-19T14:39:28;27.52;;;14.90;;
50781;SDS011;36749;37.428;-121.972;2022-10-19T14:41:56;32.00;;;16.83;;
50781;SDS011;36749;37.428;-121.972;2022-10-19T14:44:37;30.55;;;14.80;;
50781;SDS011;36749;37.428;-121.972;2022-10-19T14:47:17;26.45;;;14.13;;
50781;SDS011;36749;37.428;-121.972;2022-10-19T14:49:48;27.50;;;14.57;;
50781;SDS011;36749;37.428;-121.972;2022-10-19T14:52:16;26.63;;;13.63;;
50781;SDS011;36749;37.428;-121.972;2022-10-19T14:55:07;28.88;;;15.15;;
50781;SDS011;36749;37.428;-121.972;2022-10-19T14:57:36;31.63;;;14.63;;
50781;SDS011;36749;37.428;-121.972;2022-10-19T15:00:04;29.73;;;15.93;;
50781;SDS011;36749;37.428;-121.972;2022-10-19T15:02:39;35.80;;;14.93;;
50781;SDS011;36749;37.428;-121.972;2022-10-19T15:05:17;26.65;;;14.48;;
50781;SDS011;36749;37.428;-121.972;2022-10-19T15:07:46;29.90;;;15.07;;
50781;SDS011;36749;37.428;-121.972;2022-10-19T15:12:46;29.20;;;16.00;;
50781;SDS011;36749;37.428;-121.972;2022-10-19T15:20:29;30.33;;;16.70;;
50781;SDS011;36749;37.428;-121.972;2022-10-19T15:22:56;32.75;;;16.35;;
50781;SDS011;36749;37.428;-121.972;2022-10-19T15:25:27;30.30;;;16.38;;
50781;SDS011;36749;37.428;-121.972;2022-10-19T15:27:57;32.45;;;15.50;;
50781;SDS011;36749;37.428;-121.972;2022-10-19T15:30:24;30.08;;;16.55;;
50781;SDS011;36749;37.428;-121.972;2022-10-19T15:37:58;31.75;;;15.45;;
50781;SDS011;36749;37.428;-121.972;2022-10-19T15:40:36;28.67;;;14.88;;
50781;SDS011;36749;37.428;-121.972;2022-10-19T15:46:04;24.97;;;14.27;;
50781;SDS011;36749;37.428;-121.972;2022-10-19T15:53:51;21.20;;;12.80;;
50781;SDS011;36749;37.428;-121.972;2022-10-19T15:56:28;24.38;;;12.45;;
50781;SDS011;36749;37.428;-121.972;2022-10-19T15:58:57;23.42;;;11.77;;
50781;SDS011;36749;37.428;-121.972;2022-10-19T16:01:25;21.58;;;10.93;;
50781;SDS011;36749;37.428;-121.972;2022-10-19T16:03:53;22.27;;;11.73;;
50781;SDS011;36749;37.428;-121.972;2022-10-19T16:06:20;27.40;;;12.90;;
50781;SDS011;36749;37.428;-121.972;2022-10-19T16:08:48;22.42;;;12.10;;
50781;SDS011;36749;37.428;-121.972;2022-10-19T16:11:16;24.63;;;12.18;;
50781;SDS011;36749;37.428;-121.972;2022-10-19T16:13:44;19.27;;;11.23;;
50781;SDS011;36749;37.428;-121.972;2022-10-19T16:16:11;27.30;;;12.80;;
50781;SDS011;36749;37.428;-121.972;2022-10-19T16:18:42;28.17;;;13.02;;
50781;SDS011;36749;37.428;-121.972;2022-10-19T16:21:08;22.58;;;11.80;;
50781;SDS011;36749;37.428;-121.972;2022-10-19T16:23:34;22.35;;;11.93;;
50781;SDS011;36749;37.428;-121.972;2022-10-19T16:26:02;23.77;;;12.18;;
50781;SDS011;36749;37.428;-121.972;2022-10-19T16:28:29;26.48;;;12.02;;
50781;SDS011;36749;37.428;-121.972;2022-10-19T16:30:55;25.63;;;12.43;;
50781;SDS011;36749;37.428;-121.972;2022-10-19T16:33:22;27.58;;;11.55;;
50781;SDS011;36749;37.428;-121.972;2022-10-19T16:35:48;21.02;;;11.20;;
50781;SDS011;36749;37.428;-121.972;2022-10-19T16:38:14;24.73;;;11.52;;
50781;SDS011;36749;37.428;-121.972;2022-10-19T16:40:41;22.48;;;11.00;;
50781;SDS011;36749;37.428;-121.972;2022-10-19T16:43:07;22.80;;;12.05;;
50781;SDS011;36749;37.428;-121.972;2022-10-19T16:45:33;21.63;;;10.75;;
50781;SDS011;36749;37.428;-121.972;2022-10-19T16:48:00;23.55;;;10.50;;
50781;SDS011;36749;37.428;-121.972;2022-10-19T16:50:26;23.10;;;10.70;;